Flight Track Log - Related Links

Times and Time Zones

All times are in EDT time to prevent confusion due to time zone crossing. See the FLG3800 flight status page for this flight to view local times or setup timezone preferences in your user account.

Time Position Orientation Groundspeed Altitude Reporting Facility
EDT Latitude Longitude Course Direction KTS MPH feet Rate Location/Type
Thu 08:06:11 AM 42.2086 -85.5272 106° East 165 190 2,600  Level Chicago Center
Thu 08:07:13 AM 42.1900 -85.4603 111° Southeast 211 243 4,700 2,390 Climbing Chicago Center
Thu 08:08:14 AM 42.1706 -85.3592 105° East 260 299 7,500 2,972 Climbing Chicago Center
Thu 08:09:00 AM 42.1556 -85.1982 106° East  Level FlightAware Approximate
Thu 08:09:02 AM 42.1525 -85.2583 104° East 281 323 10,100  Level Cleveland Center
Thu 08:10:00 AM 42.1366 -85.1092 106° East  Level FlightAware Approximate
Thu 08:10:02 AM 42.1322 -85.1392 103° East 313 360 11,000  Level Cleveland Center
Thu 08:11:00 AM 42.1175 -85.0203 106° East  Level FlightAware Approximate
Thu 08:11:02 AM 42.1044 -84.9917 104° East 367 422 11,100  Level Cleveland Center
Thu 08:12:02 AM 42.0783 -84.8556 104° East 383 441 11,000 -50 Descending Cleveland Center
Thu 08:13:02 AM 42.0375 -84.7242 113° Southeast 383 441 11,000  Level Cleveland Center
Thu 08:14:02 AM 41.9942 -84.5872 113° Southeast 383 441 11,000  Level Cleveland Center
Thu 08:14:58 AM 41.9511 -84.4503 113° Southeast 396 456 11,000  Level Cleveland Center
Thu 08:15:58 AM 41.9078 -84.3111 113° Southeast 398 458 11,000  Level Cleveland Center
Thu 08:16:59 AM 41.8661 -84.1747 112° Southeast 398 458 11,000  Level Cleveland Center
Thu 08:18:02 AM 41.8417 -84.0200 102° East 384 442 11,000  Level Cleveland Center
Thu 08:19:02 AM 41.9119 -83.8981 52° Northeast 350 403 11,000  Level Cleveland Center
Thu 08:20:02 AM 41.9964 -83.7936 43° Northeast 413 475 11,000  Level Cleveland Center
Thu 08:21:02 AM 42.0764 -83.6856 45° Northeast 384 442 11,000  Level Cleveland Center
Thu 08:21:41 AM 42.1297 -83.6192 43° Northeast 408 470 11,000  Level FAA TRACON SMA TRACON (SMA)
Thu 08:22:01 AM 42.1575 -83.5822 45° Northeast 358 412 11,000  Level FAA TRACON SMA TRACON (SMA)
Thu 08:22:20 AM 42.1800 -83.5600 36° Northeast 318 366 11,000  Level FAA TRACON SMA TRACON (SMA)
Thu 08:22:41 AM 42.2022 -83.5442 28° Northeast 292 336 11,000  Level FAA TRACON SMA TRACON (SMA)
Thu 08:23:00 AM 42.2289 -83.5258 27° Northeast 277 319 11,000  Level FAA TRACON SMA TRACON (SMA)
Thu 08:23:21 AM 42.2500 -83.5117 26° Northeast 276 318 11,000 -439 Level FAA TRACON SMA TRACON (SMA)
Thu 08:23:41 AM 42.2708 -83.4972 27° Northeast 275 316 10,700 -1,385 Descending FAA TRACON SMA TRACON (SMA)
Thu 08:24:00 AM 42.2967 -83.4794 27° Northeast 272 313 10,100 -1,650 Descending FAA TRACON SMA TRACON (SMA)
Thu 08:24:21 AM 42.3172 -83.4653 27° Northeast 271 312 9,600 -1,463 Descending FAA TRACON SMA TRACON (SMA)
Thu 08:24:41 AM 42.3378 -83.4514 27° Northeast 269 310 9,100 -1,950 Descending FAA TRACON SMA TRACON (SMA)
Thu 08:25:01 AM 42.3628 -83.4344 27° Northeast 263 303 8,300 -2,308 Descending FAA TRACON SMA TRACON (SMA)
Thu 08:25:20 AM 42.3825 -83.4219 25° Northeast 260 299 7,600 -2,100 Descending FAA TRACON SMA TRACON (SMA)
Thu 08:25:41 AM 42.4081 -83.4072 23° Northeast 280 322 6,900 -1,902 Descending FAA TRACON SMA TRACON (SMA)
Thu 08:26:01 AM 42.4264 -83.3931 30° Northeast 239 275 6,300 -1,650 Descending FAA TRACON SMA TRACON (SMA)
Thu 08:26:21 AM 42.4364 -83.3686 61° Northeast 246 283 5,800 -1,050 Descending FAA TRACON SMA TRACON (SMA)
Thu 08:26:41 AM 42.4328 -83.3375 99° East 218 251 5,600 -900 Descending FAA TRACON SMA TRACON (SMA)
Thu 08:27:01 AM 42.4281 -83.3139 105° East 212 244 5,200 -1,231 Descending FAA TRACON SMA TRACON (SMA)
Thu 08:27:20 AM 42.4203 -83.2939 118° Southeast 191 220 4,800 -1,350 Descending FAA TRACON SMA TRACON (SMA)
Thu 08:27:41 AM 42.4028 -83.2875 165° South 179 206 4,300 -1,317 Descending FAA TRACON SMA TRACON (SMA)
Thu 08:28:01 AM 42.3850 -83.2856 175° South 179 206 3,900 -923 Descending FAA TRACON SMA TRACON (SMA)
Thu 08:28:20 AM 42.3714 -83.2836 174° South 159 183 3,700 -900 Descending FAA TRACON SMA TRACON (SMA)
Thu 08:28:41 AM 42.3550 -83.2825 177° South 154 177 3,300 -600 Descending FAA TRACON SMA TRACON (SMA)
Thu 08:29:00 AM 42.3433 -83.2853 190° South 149 171 3,300 -300 Level FAA TRACON SMA TRACON (SMA)
Thu 08:29:21 AM 42.3292 -83.2900 194° South 149 171 3,100 -750 Descending FAA TRACON SMA TRACON (SMA)
Thu 08:29:40 AM 42.3161 -83.2992 207° Southwest 149 171 2,800 -947 Descending FAA TRACON SMA TRACON (SMA)

Login

Don't have an account? Register now (free) for customized features, flight alerts, and more!